sensor_id;sensor_type;location;lat;lon;timestamp;temperature;humidity
12588;DHT22;6359;51.450;7.346;2022-09-03T00:00:05;16.80;99.90
12588;DHT22;6359;51.450;7.346;2022-09-03T00:02:39;16.60;99.90
12588;DHT22;6359;51.450;7.346;2022-09-03T00:05:16;16.50;99.90
12588;DHT22;6359;51.450;7.346;2022-09-03T00:07:48;16.30;99.90
12588;DHT22;6359;51.450;7.346;2022-09-03T00:10:24;16.10;99.90
12588;DHT22;6359;51.450;7.346;2022-09-03T00:12:53;15.90;99.90
12588;DHT22;6359;51.450;7.346;2022-09-03T00:15:23;15.80;99.90
12588;DHT22;6359;51.450;7.346;2022-09-03T00:17:53;15.60;99.90
12588;DHT22;6359;51.450;7.346;2022-09-03T00:20:26;15.40;99.90
12588;DHT22;6359;51.450;7.346;2022-09-03T00:22:57;15.40;99.90
12588;DHT22;6359;51.450;7.346;2022-09-03T00:25:28;15.40;99.90
12588;DHT22;6359;51.450;7.346;2022-09-03T00:28:02;15.40;99.90
12588;DHT22;6359;51.450;7.346;2022-09-03T00:30:31;15.30;99.90
12588;DHT22;6359;51.450;7.346;2022-09-03T00:33:03;15.30;99.90
12588;DHT22;6359;51.450;7.346;2022-09-03T00:35:41;15.10;99.90
12588;DHT22;6359;51.450;7.346;2022-09-03T00:38:08;15.00;99.90
12588;DHT22;6359;51.450;7.346;2022-09-03T00:40:45;14.80;99.90
12588;DHT22;6359;51.450;7.346;2022-09-03T00:43:22;14.60;99.90
12588;DHT22;6359;51.450;7.346;2022-09-03T00:45:56;14.70;99.90
12588;DHT22;6359;51.450;7.346;2022-09-03T00:48:33;14.60;99.90
12588;DHT22;6359;51.450;7.346;2022-09-03T00:51:12;14.50;99.90
12588;DHT22;6359;51.450;7.346;2022-09-03T00:53:51;14.40;99.90
12588;DHT22;6359;51.450;7.346;2022-09-03T00:56:27;14.30;99.90
12588;DHT22;6359;51.450;7.346;2022-09-03T00:59:06;14.20;99.90
12588;DHT22;6359;51.450;7.346;2022-09-03T01:01:39;14.10;99.90
12588;DHT22;6359;51.450;7.346;2022-09-03T01:04:25;13.90;99.90
12588;DHT22;6359;51.450;7.346;2022-09-03T01:07:01;13.80;99.90
12588;DHT22;6359;51.450;7.346;2022-09-03T01:09:44;13.70;99.90
12588;DHT22;6359;51.450;7.346;2022-09-03T01:12:21;13.80;99.90
12588;DHT22;6359;51.450;7.346;2022-09-03T01:15:00;13.90;99.90
12588;DHT22;6359;51.450;7.346;2022-09-03T01:17:41;13.90;99.90
12588;DHT22;6359;51.450;7.346;2022-09-03T01:20:44;13.70;99.90
12588;DHT22;6359;51.450;7.346;2022-09-03T01:26:36;13.60;99.90
12588;DHT22;6359;51.450;7.346;2022-09-03T01:29:14;13.50;99.90
12588;DHT22;6359;51.450;7.346;2022-09-03T01:31:52;13.40;99.90
12588;DHT22;6359;51.450;7.346;2022-09-03T01:34:33;13.50;99.90
12588;DHT22;6359;51.450;7.346;2022-09-03T01:37:11;13.60;99.90
12588;DHT22;6359;51.450;7.346;2022-09-03T01:39:49;13.60;99.90
12588;DHT22;6359;51.450;7.346;2022-09-03T01:42:28;13.60;99.90
12588;DHT22;6359;51.450;7.346;2022-09-03T01:45:24;13.70;99.90
12588;DHT22;6359;51.450;7.346;2022-09-03T01:48:06;13.80;99.90
12588;DHT22;6359;51.450;7.346;2022-09-03T01:50:43;13.90;99.90
12588;DHT22;6359;51.450;7.346;2022-09-03T01:53:21;14.20;99.90
12588;DHT22;6359;51.450;7.346;2022-09-03T01:56:01;14.40;99.90
12588;DHT22;6359;51.450;7.346;2022-09-03T01:58:38;14.20;99.90
12588;DHT22;6359;51.450;7.346;2022-09-03T02:01:13;14.20;99.90
12588;DHT22;6359;51.450;7.346;2022-09-03T02:03:44;14.30;99.90
12588;DHT22;6359;51.450;7.346;2022-09-03T02:06:12;14.20;99.90
12588;DHT22;6359;51.450;7.346;2022-09-03T02:08:40;14.30;99.90
12588;DHT22;6359;51.450;7.346;2022-09-03T02:11:08;14.40;99.90
12588;DHT22;6359;51.450;7.346;2022-09-03T02:13:38;14.40;99.90
12588;DHT22;6359;51.450;7.346;2022-09-03T02:16:11;14.50;99.90
12588;DHT22;6359;51.450;7.346;2022-09-03T02:18:42;14.40;99.90
12588;DHT22;6359;51.450;7.346;2022-09-03T02:21:11;14.40;99.90
12588;DHT22;6359;51.450;7.346;2022-09-03T02:23:40;14.30;99.90
12588;DHT22;6359;51.450;7.346;2022-09-03T02:26:09;14.10;99.90
12588;DHT22;6359;51.450;7.346;2022-09-03T02:28:37;14.00;99.90
12588;DHT22;6359;51.450;7.346;2022-09-03T02:31:04;13.80;99.90
12588;DHT22;6359;51.450;7.346;2022-09-03T02:33:36;13.60;99.90
12588;DHT22;6359;51.450;7.346;2022-09-03T02:36:04;13.50;99.90
12588;DHT22;6359;51.450;7.346;2022-09-03T02:38:32;13.40;99.90
12588;DHT22;6359;51.450;7.346;2022-09-03T02:40:58;13.30;99.90
12588;DHT22;6359;51.450;7.346;2022-09-03T02:43:31;13.20;99.90
12588;DHT22;6359;51.450;7.346;2022-09-03T02:46:01;13.20;99.90
12588;DHT22;6359;51.450;7.346;2022-09-03T02:48:29;13.20;99.90
12588;DHT22;6359;51.450;7.346;2022-09-03T02:50:57;13.10;99.90
12588;DHT22;6359;51.450;7.346;2022-09-03T02:53:24;13.00;99.90
12588;DHT22;6359;51.450;7.346;2022-09-03T02:55:57;12.90;99.90
12588;DHT22;6359;51.450;7.346;2022-09-03T02:58:24;12.80;99.90
12588;DHT22;6359;51.450;7.346;2022-09-03T03:00:51;12.70;99.90
12588;DHT22;6359;51.450;7.346;2022-09-03T03:03:18;12.70;99.90
12588;DHT22;6359;51.450;7.346;2022-09-03T03:05:47;12.60;99.90
12588;DHT22;6359;51.450;7.346;2022-09-03T03:08:18;12.60;99.90
12588;DHT22;6359;51.450;7.346;2022-09-03T03:10:46;12.50;99.90
12588;DHT22;6359;51.450;7.346;2022-09-03T03:13:14;12.40;99.90
12588;DHT22;6359;51.450;7.346;2022-09-03T03:15:41;12.50;99.90
12588;DHT22;6359;51.450;7.346;2022-09-03T03:18:08;12.40;99.90
12588;DHT22;6359;51.450;7.346;2022-09-03T03:20:36;12.30;99.90
12588;DHT22;6359;51.450;7.346;2022-09-03T03:23:03;12.30;99.90
12588;DHT22;6359;51.450;7.346;2022-09-03T03:25:33;12.20;99.90
12588;DHT22;6359;51.450;7.346;2022-09-03T03:28:00;12.10;99.90
12588;DHT22;6359;51.450;7.346;2022-09-03T03:30:28;12.20;99.90
12588;DHT22;6359;51.450;7.346;2022-09-03T03:32:55;12.10;99.90
12588;DHT22;6359;51.450;7.346;2022-09-03T03:35:22;12.10;99.90
12588;DHT22;6359;51.450;7.346;2022-09-03T03:37:49;12.00;99.90
12588;DHT22;6359;51.450;7.346;2022-09-03T03:40:16;12.20;99.90
12588;DHT22;6359;51.450;7.346;2022-09-03T03:42:46;12.20;99.90
12588;DHT22;6359;51.450;7.346;2022-09-03T03:45:14;12.10;99.90
12588;DHT22;6359;51.450;7.346;2022-09-03T03:47:41;12.10;99.90
12588;DHT22;6359;51.450;7.346;2022-09-03T03:50:08;12.00;99.90
12588;DHT22;6359;51.450;7.346;2022-09-03T03:52:35;12.00;99.90
12588;DHT22;6359;51.450;7.346;2022-09-03T03:55:03;12.00;99.90
12588;DHT22;6359;51.450;7.346;2022-09-03T03:57:31;12.10;99.90
12588;DHT22;6359;51.450;7.346;2022-09-03T04:00:00;12.00;99.90
12588;DHT22;6359;51.450;7.346;2022-09-03T04:02:27;12.00;99.90
12588;DHT22;6359;51.450;7.346;2022-09-03T04:04:53;12.00;99.90
12588;DHT22;6359;51.450;7.346;2022-09-03T04:07:20;12.00;99.90
12588;DHT22;6359;51.450;7.346;2022-09-03T04:09:47;11.90;99.90
12588;DHT22;6359;51.450;7.346;2022-09-03T04:12:14;12.00;99.90
12588;DHT22;6359;51.450;7.346;2022-09-03T04:14:43;12.00;99.90
12588;DHT22;6359;51.450;7.346;2022-09-03T04:17:12;12.20;99.90
12588;DHT22;6359;51.450;7.346;2022-09-03T04:19:39;12.20;99.90
12588;DHT22;6359;51.450;7.346;2022-09-03T04:22:06;12.20;99.90
12588;DHT22;6359;51.450;7.346;2022-09-03T04:24:33;12.20;99.90
12588;DHT22;6359;51.450;7.346;2022-09-03T04:27:00;12.10;99.90
12588;DHT22;6359;51.450;7.346;2022-09-03T04:29:27;12.00;99.90
12588;DHT22;6359;51.450;7.346;2022-09-03T04:31:55;12.00;99.90
12588;DHT22;6359;51.450;7.346;2022-09-03T04:34:40;12.00;99.90
12588;DHT22;6359;51.450;7.346;2022-09-03T04:37:07;12.10;99.90
12588;DHT22;6359;51.450;7.346;2022-09-03T04:39:35;12.30;99.90
12588;DHT22;6359;51.450;7.346;2022-09-03T04:42:02;12.30;99.90
12588;DHT22;6359;51.450;7.346;2022-09-03T04:44:29;12.50;99.90
12588;DHT22;6359;51.450;7.346;2022-09-03T04:46:56;12.50;99.90
12588;DHT22;6359;51.450;7.346;2022-09-03T04:49:23;12.70;99.90
12588;DHT22;6359;51.450;7.346;2022-09-03T04:51:51;12.60;99.90
12588;DHT22;6359;51.450;7.346;2022-09-03T04:54:18;12.60;99.90
12588;DHT22;6359;51.450;7.346;2022-09-03T04:56:45;12.60;99.90
12588;DHT22;6359;51.450;7.346;2022-09-03T04:59:12;12.50;99.90
12588;DHT22;6359;51.450;7.346;2022-09-03T05:01:39;12.50;99.90
12588;DHT22;6359;51.450;7.346;2022-09-03T05:04:07;12.50;99.90
12588;DHT22;6359;51.450;7.346;2022-09-03T05:06:35;12.60;99.90
12588;DHT22;6359;51.450;7.346;2022-09-03T05:09:04;12.60;99.90
12588;DHT22;6359;51.450;7.346;2022-09-03T05:11:32;12.50;99.90
12588;DHT22;6359;51.450;7.346;2022-09-03T05:13:59;12.40;99.90
12588;DHT22;6359;51.450;7.346;2022-09-03T05:16:27;12.40;99.90
12588;DHT22;6359;51.450;7.346;2022-09-03T05:18:56;12.40;99.90
12588;DHT22;6359;51.450;7.346;2022-09-03T05:21:24;12.30;99.90
12588;DHT22;6359;51.450;7.346;2022-09-03T05:23:51;12.30;99.90
12588;DHT22;6359;51.450;7.346;2022-09-03T05:26:22;12.40;99.90
12588;DHT22;6359;51.450;7.346;2022-09-03T05:28:52;12.40;99.90
12588;DHT22;6359;51.450;7.346;2022-09-03T05:31:20;12.50;99.90
12588;DHT22;6359;51.450;7.346;2022-09-03T05:33:49;12.50;99.90
12588;DHT22;6359;51.450;7.346;2022-09-03T05:36:17;12.50;99.90
12588;DHT22;6359;51.450;7.346;2022-09-03T05:38:45;12.60;99.90
12588;DHT22;6359;51.450;7.346;2022-09-03T05:41:15;12.60;99.90
12588;DHT22;6359;51.450;7.346;2022-09-03T05:43:43;12.70;99.90
12588;DHT22;6359;51.450;7.346;2022-09-03T05:46:12;12.70;99.90
12588;DHT22;6359;51.450;7.346;2022-09-03T05:48:41;12.80;99.90
12588;DHT22;6359;51.450;7.346;2022-09-03T05:51:10;12.90;99.90
12588;DHT22;6359;51.450;7.346;2022-09-03T05:53:41;13.10;99.90
12588;DHT22;6359;51.450;7.346;2022-09-03T05:56:11;13.30;99.90
12588;DHT22;6359;51.450;7.346;2022-09-03T05:58:39;13.60;99.90
12588;DHT22;6359;51.450;7.346;2022-09-03T06:01:10;13.70;99.90
12588;DHT22;6359;51.450;7.346;2022-09-03T06:03:38;13.90;99.90
12588;DHT22;6359;51.450;7.346;2022-09-03T06:06:06;14.00;99.90
12588;DHT22;6359;51.450;7.346;2022-09-03T06:08:33;14.20;99.90
12588;DHT22;6359;51.450;7.346;2022-09-03T06:11:01;14.40;99.90
12588;DHT22;6359;51.450;7.346;2022-09-03T06:13:29;14.50;99.90
12588;DHT22;6359;51.450;7.346;2022-09-03T06:15:57;14.60;99.90
12588;DHT22;6359;51.450;7.346;2022-09-03T06:18:26;14.70;99.90
12588;DHT22;6359;51.450;7.346;2022-09-03T06:20:53;14.90;99.90
12588;DHT22;6359;51.450;7.346;2022-09-03T06:23:20;15.10;99.90
12588;DHT22;6359;51.450;7.346;2022-09-03T06:25:58;15.20;99.90
12588;DHT22;6359;51.450;7.346;2022-09-03T06:28:25;15.50;99.90
12588;DHT22;6359;51.450;7.346;2022-09-03T06:30:52;15.70;99.90
12588;DHT22;6359;51.450;7.346;2022-09-03T06:33:20;16.00;99.90
12588;DHT22;6359;51.450;7.346;2022-09-03T06:35:53;16.30;99.90
12588;DHT22;6359;51.450;7.346;2022-09-03T06:38:23;17.30;99.90
12588;DHT22;6359;51.450;7.346;2022-09-03T06:40:53;19.30;99.90
12588;DHT22;6359;51.450;7.346;2022-09-03T06:43:21;21.30;99.90
12588;DHT22;6359;51.450;7.346;2022-09-03T06:45:53;23.10;99.90
12588;DHT22;6359;51.450;7.346;2022-09-03T06:48:20;24.40;99.90
12588;DHT22;6359;51.450;7.346;2022-09-03T06:50:56;25.80;99.90
12588;DHT22;6359;51.450;7.346;2022-09-03T06:53:24;26.90;99.90
12588;DHT22;6359;51.450;7.346;2022-09-03T06:55:55;27.60;99.90
12588;DHT22;6359;51.450;7.346;2022-09-03T06:58:22;28.60;99.90
12588;DHT22;6359;51.450;7.346;2022-09-03T07:00:50;29.00;98.90
12588;DHT22;6359;51.450;7.346;2022-09-03T07:03:19;29.50;97.20
12588;DHT22;6359;51.450;7.346;2022-09-03T07:05:46;30.30;95.90
12588;DHT22;6359;51.450;7.346;2022-09-03T07:08:14;30.60;93.90
12588;DHT22;6359;51.450;7.346;2022-09-03T07:10:45;31.10;92.00
12588;DHT22;6359;51.450;7.346;2022-09-03T07:13:13;31.50;90.20
12588;DHT22;6359;51.450;7.346;2022-09-03T07:15:40;31.10;90.00
12588;DHT22;6359;51.450;7.346;2022-09-03T07:18:07;31.10;88.20
12588;DHT22;6359;51.450;7.346;2022-09-03T07:20:34;30.70;88.50
12588;DHT22;6359;51.450;7.346;2022-09-03T07:23:01;30.80;87.20
12588;DHT22;6359;51.450;7.346;2022-09-03T07:25:30;31.10;87.50
12588;DHT22;6359;51.450;7.346;2022-09-03T07:27:57;31.80;85.10
12588;DHT22;6359;51.450;7.346;2022-09-03T07:30:24;31.80;84.30
12588;DHT22;6359;51.450;7.346;2022-09-03T07:32:52;31.80;83.90
12588;DHT22;6359;51.450;7.346;2022-09-03T07:35:19;31.90;84.30
12588;DHT22;6359;51.450;7.346;2022-09-03T07:37:50;32.10;82.50
12588;DHT22;6359;51.450;7.346;2022-09-03T07:40:19;32.60;80.20
12588;DHT22;6359;51.450;7.346;2022-09-03T07:42:48;33.10;80.50
12588;DHT22;6359;51.450;7.346;2022-09-03T07:45:15;33.10;78.50
12588;DHT22;6359;51.450;7.346;2022-09-03T07:47:46;33.30;80.00
12588;DHT22;6359;51.450;7.346;2022-09-03T07:50:14;33.30;77.10
12588;DHT22;6359;51.450;7.346;2022-09-03T07:52:44;32.70;76.00
12588;DHT22;6359;51.450;7.346;2022-09-03T07:55:12;33.30;75.10
12588;DHT22;6359;51.450;7.346;2022-09-03T07:57:39;31.00;75.40
12588;DHT22;6359;51.450;7.346;2022-09-03T08:00:09;29.30;76.70
12588;DHT22;6359;51.450;7.346;2022-09-03T08:02:37;27.80;79.30
12588;DHT22;6359;51.450;7.346;2022-09-03T08:05:05;26.70;81.40
12588;DHT22;6359;51.450;7.346;2022-09-03T08:07:32;26.70;83.10
12588;DHT22;6359;51.450;7.346;2022-09-03T08:09:59;28.10;82.90
12588;DHT22;6359;51.450;7.346;2022-09-03T08:12:27;29.80;82.30
12588;DHT22;6359;51.450;7.346;2022-09-03T08:14:54;31.30;78.80
12588;DHT22;6359;51.450;7.346;2022-09-03T08:17:23;31.90;77.70
12588;DHT22;6359;51.450;7.346;2022-09-03T08:19:50;32.90;75.70
12588;DHT22;6359;51.450;7.346;2022-09-03T08:22:19;32.20;73.30
12588;DHT22;6359;51.450;7.346;2022-09-03T08:24:50;32.00;73.90
12588;DHT22;6359;51.450;7.346;2022-09-03T08:27:19;31.50;74.90
12588;DHT22;6359;51.450;7.346;2022-09-03T08:29:50;31.70;75.00
12588;DHT22;6359;51.450;7.346;2022-09-03T08:32:17;32.30;75.90
12588;DHT22;6359;51.450;7.346;2022-09-03T08:34:45;32.70;74.20
12588;DHT22;6359;51.450;7.346;2022-09-03T08:37:12;32.70;72.90
12588;DHT22;6359;51.450;7.346;2022-09-03T08:39:39;31.20;73.20
12588;DHT22;6359;51.450;7.346;2022-09-03T08:42:21;30.70;74.70
12588;DHT22;6359;51.450;7.346;2022-09-03T08:44:53;31.90;76.70
12588;DHT22;6359;51.450;7.346;2022-09-03T08:47:23;32.50;74.80
12588;DHT22;6359;51.450;7.346;2022-09-03T08:49:55;32.80;73.70
12588;DHT22;6359;51.450;7.346;2022-09-03T08:52:33;33.30;73.30
12588;DHT22;6359;51.450;7.346;2022-09-03T08:55:15;34.30;70.70
12588;DHT22;6359;51.450;7.346;2022-09-03T08:57:46;34.80;69.60
12588;DHT22;6359;51.450;7.346;2022-09-03T09:00:15;34.20;68.40
12588;DHT22;6359;51.450;7.346;2022-09-03T09:03:02;34.00;68.30
12588;DHT22;6359;51.450;7.346;2022-09-03T09:05:43;34.30;68.50
12588;DHT22;6359;51.450;7.346;2022-09-03T09:08:22;33.10;70.50
12588;DHT22;6359;51.450;7.346;2022-09-03T09:10:58;34.10;68.60
12588;DHT22;6359;51.450;7.346;2022-09-03T09:13:32;32.70;69.30
12588;DHT22;6359;51.450;7.346;2022-09-03T09:16:05;33.20;70.80
12588;DHT22;6359;51.450;7.346;2022-09-03T09:18:44;30.00;71.10
12588;DHT22;6359;51.450;7.346;2022-09-03T09:21:16;29.90;73.20
12588;DHT22;6359;51.450;7.346;2022-09-03T09:23:46;31.80;73.50
12588;DHT22;6359;51.450;7.346;2022-09-03T09:26:15;32.60;70.90
12588;DHT22;6359;51.450;7.346;2022-09-03T09:28:45;33.50;69.60
12588;DHT22;6359;51.450;7.346;2022-09-03T09:31:15;32.20;69.50
12588;DHT22;6359;51.450;7.346;2022-09-03T09:33:43;31.50;71.70
12588;DHT22;6359;51.450;7.346;2022-09-03T09:36:12;32.20;69.90
12588;DHT22;6359;51.450;7.346;2022-09-03T09:38:42;32.80;72.60
12588;DHT22;6359;51.450;7.346;2022-09-03T09:41:11;32.90;71.10
12588;DHT22;6359;51.450;7.346;2022-09-03T09:43:39;32.70;70.00
12588;DHT22;6359;51.450;7.346;2022-09-03T09:46:11;32.00;73.60
12588;DHT22;6359;51.450;7.346;2022-09-03T09:48:45;32.30;73.10
12588;DHT22;6359;51.450;7.346;2022-09-03T09:51:17;32.40;72.40
12588;DHT22;6359;51.450;7.346;2022-09-03T09:53:46;31.90;70.90
12588;DHT22;6359;51.450;7.346;2022-09-03T09:56:20;32.00;71.40
12588;DHT22;6359;51.450;7.346;2022-09-03T09:58:47;32.60;71.80
12588;DHT22;6359;51.450;7.346;2022-09-03T10:01:18;32.70;70.60
12588;DHT22;6359;51.450;7.346;2022-09-03T10:03:49;32.70;70.30
12588;DHT22;6359;51.450;7.346;2022-09-03T10:06:22;32.80;70.20
12588;DHT22;6359;51.450;7.346;2022-09-03T10:09:11;32.80;69.80
12588;DHT22;6359;51.450;7.346;2022-09-03T10:11:41;33.40;69.50
12588;DHT22;6359;51.450;7.346;2022-09-03T10:14:17;32.00;70.50
12588;DHT22;6359;51.450;7.346;2022-09-03T10:16:52;32.40;70.40
12588;DHT22;6359;51.450;7.346;2022-09-03T10:19:26;31.40;69.70
12588;DHT22;6359;51.450;7.346;2022-09-03T10:22:04;31.90;70.40
12588;DHT22;6359;51.450;7.346;2022-09-03T10:24:40;33.40;68.70
12588;DHT22;6359;51.450;7.346;2022-09-03T10:27:13;33.30;71.20
12588;DHT22;6359;51.450;7.346;2022-09-03T10:29:42;32.90;70.80
12588;DHT22;6359;51.450;7.346;2022-09-03T10:32:31;33.10;68.70
12588;DHT22;6359;51.450;7.346;2022-09-03T10:35:05;33.60;69.40
12588;DHT22;6359;51.450;7.346;2022-09-03T10:37:38;33.30;68.10
12588;DHT22;6359;51.450;7.346;2022-09-03T10:40:24;33.30;68.20
12588;DHT22;6359;51.450;7.346;2022-09-03T10:43:06;32.20;69.60
12588;DHT22;6359;51.450;7.346;2022-09-03T10:45:39;31.70;70.00
12588;DHT22;6359;51.450;7.346;2022-09-03T10:51:05;29.40;74.00
12588;DHT22;6359;51.450;7.346;2022-09-03T10:54:01;29.20;75.50
12588;DHT22;6359;51.450;7.346;2022-09-03T10:56:40;29.20;76.00
12588;DHT22;6359;51.450;7.346;2022-09-03T10:59:26;29.00;76.00
12588;DHT22;6359;51.450;7.346;2022-09-03T11:02:02;29.20;75.40
12588;DHT22;6359;51.450;7.346;2022-09-03T11:04:39;29.60;77.20
12588;DHT22;6359;51.450;7.346;2022-09-03T11:07:12;29.80;75.40
12588;DHT22;6359;51.450;7.346;2022-09-03T11:09:43;30.30;76.10
12588;DHT22;6359;51.450;7.346;2022-09-03T11:12:18;30.20;73.80
12588;DHT22;6359;51.450;7.346;2022-09-03T11:14:50;30.10;74.10
12588;DHT22;6359;51.450;7.346;2022-09-03T11:17:24;31.00;74.60
12588;DHT22;6359;51.450;7.346;2022-09-03T11:19:55;31.20;74.60
12588;DHT22;6359;51.450;7.346;2022-09-03T11:22:24;30.90;73.30
12588;DHT22;6359;51.450;7.346;2022-09-03T11:24:57;30.40;74.60
12588;DHT22;6359;51.450;7.346;2022-09-03T11:27:36;30.20;73.60
12588;DHT22;6359;51.450;7.346;2022-09-03T11:30:12;30.20;74.00
12588;DHT22;6359;51.450;7.346;2022-09-03T11:32:46;30.00;73.40
12588;DHT22;6359;51.450;7.346;2022-09-03T11:35:26;29.70;74.50
12588;DHT22;6359;51.450;7.346;2022-09-03T11:37:57;30.00;74.80
12588;DHT22;6359;51.450;7.346;2022-09-03T11:40:31;29.40;75.00
12588;DHT22;6359;51.450;7.346;2022-09-03T11:43:10;29.40;76.70
12588;DHT22;6359;51.450;7.346;2022-09-03T11:45:38;28.90;77.10
12588;DHT22;6359;51.450;7.346;2022-09-03T11:48:19;28.70;78.00
12588;DHT22;6359;51.450;7.346;2022-09-03T11:50:54;28.90;77.80
12588;DHT22;6359;51.450;7.346;2022-09-03T11:53:24;29.00;78.30
12588;DHT22;6359;51.450;7.346;2022-09-03T11:55:54;28.70;77.00
12588;DHT22;6359;51.450;7.346;2022-09-03T11:58:25;28.30;80.10
12588;DHT22;6359;51.450;7.346;2022-09-03T12:00:55;28.20;78.00
12588;DHT22;6359;51.450;7.346;2022-09-03T12:03:25;27.50;79.40
12588;DHT22;6359;51.450;7.346;2022-09-03T12:06:10;27.40;80.90
12588;DHT22;6359;51.450;7.346;2022-09-03T12:08:51;27.40;80.20
12588;DHT22;6359;51.450;7.346;2022-09-03T12:11:30;27.40;82.00
12588;DHT22;6359;51.450;7.346;2022-09-03T12:14:07;27.30;81.60
12588;DHT22;6359;51.450;7.346;2022-09-03T12:16:56;27.50;81.80
12588;DHT22;6359;51.450;7.346;2022-09-03T12:19:31;28.00;81.60
12588;DHT22;6359;51.450;7.346;2022-09-03T12:22:01;28.10;81.90
12588;DHT22;6359;51.450;7.346;2022-09-03T12:24:30;28.00;81.70
12588;DHT22;6359;51.450;7.346;2022-09-03T12:27:00;28.40;82.40
12588;DHT22;6359;51.450;7.346;2022-09-03T12:29:30;28.30;81.70
12588;DHT22;6359;51.450;7.346;2022-09-03T12:32:05;28.00;81.70
12588;DHT22;6359;51.450;7.346;2022-09-03T12:34:33;26.70;83.40
12588;DHT22;6359;51.450;7.346;2022-09-03T12:37:00;26.20;86.70
12588;DHT22;6359;51.450;7.346;2022-09-03T12:39:28;26.20;87.50
12588;DHT22;6359;51.450;7.346;2022-09-03T12:41:59;26.00;88.00
12588;DHT22;6359;51.450;7.346;2022-09-03T12:44:31;25.80;88.70
12588;DHT22;6359;51.450;7.346;2022-09-03T12:47:04;25.70;89.60
12588;DHT22;6359;51.450;7.346;2022-09-03T12:49:35;25.50;90.30
12588;DHT22;6359;51.450;7.346;2022-09-03T12:52:07;25.40;90.10
12588;DHT22;6359;51.450;7.346;2022-09-03T12:54:39;25.40;90.50
12588;DHT22;6359;51.450;7.346;2022-09-03T12:57:08;25.40;90.70
12588;DHT22;6359;51.450;7.346;2022-09-03T12:59:38;25.30;90.90
12588;DHT22;6359;51.450;7.346;2022-09-03T13:02:14;25.50;91.40
12588;DHT22;6359;51.450;7.346;2022-09-03T13:04:44;25.80;91.40
12588;DHT22;6359;51.450;7.346;2022-09-03T13:07:13;26.00;91.40
12588;DHT22;6359;51.450;7.346;2022-09-03T13:09:45;26.10;91.50
12588;DHT22;6359;51.450;7.346;2022-09-03T13:12:28;25.90;91.80
12588;DHT22;6359;51.450;7.346;2022-09-03T13:14:57;25.80;91.80
12588;DHT22;6359;51.450;7.346;2022-09-03T13:17:47;25.70;92.00
12588;DHT22;6359;51.450;7.346;2022-09-03T13:20:32;25.60;92.20
12588;DHT22;6359;51.450;7.346;2022-09-03T13:23:24;25.80;92.20
12588;DHT22;6359;51.450;7.346;2022-09-03T13:26:00;25.60;93.20
12588;DHT22;6359;51.450;7.346;2022-09-03T13:28:40;25.50;93.00
12588;DHT22;6359;51.450;7.346;2022-09-03T13:31:22;25.50;93.60
12588;DHT22;6359;51.450;7.346;2022-09-03T13:33:55;25.60;93.40
12588;DHT22;6359;51.450;7.346;2022-09-03T13:36:27;25.90;93.80
12588;DHT22;6359;51.450;7.346;2022-09-03T13:38:58;26.20;94.70
12588;DHT22;6359;51.450;7.346;2022-09-03T13:41:34;26.40;93.40
12588;DHT22;6359;51.450;7.346;2022-09-03T13:44:07;26.50;94.10
12588;DHT22;6359;51.450;7.346;2022-09-03T13:46:43;27.00;93.80
12588;DHT22;6359;51.450;7.346;2022-09-03T13:49:20;27.30;93.20
12588;DHT22;6359;51.450;7.346;2022-09-03T13:52:15;27.50;93.40
12588;DHT22;6359;51.450;7.346;2022-09-03T13:54:51;27.40;92.50
12588;DHT22;6359;51.450;7.346;2022-09-03T13:57:29;27.30;93.40
12588;DHT22;6359;51.450;7.346;2022-09-03T14:00:02;27.30;92.80
12588;DHT22;6359;51.450;7.346;2022-09-03T14:02:47;27.30;93.20
12588;DHT22;6359;51.450;7.346;2022-09-03T14:05:22;27.10;92.70
12588;DHT22;6359;51.450;7.346;2022-09-03T14:08:00;26.80;93.00
12588;DHT22;6359;51.450;7.346;2022-09-03T14:10:49;26.40;93.90
12588;DHT22;6359;51.450;7.346;2022-09-03T14:13:23;26.10;93.50
12588;DHT22;6359;51.450;7.346;2022-09-03T14:16:03;25.90;93.90
12588;DHT22;6359;51.450;7.346;2022-09-03T14:18:40;25.50;94.10
12588;DHT22;6359;51.450;7.346;2022-09-03T14:21:14;25.50;94.00
12588;DHT22;6359;51.450;7.346;2022-09-03T14:23:46;25.50;94.60
12588;DHT22;6359;51.450;7.346;2022-09-03T14:26:18;25.40;94.90
12588;DHT22;6359;51.450;7.346;2022-09-03T14:28:49;25.60;94.50
12588;DHT22;6359;51.450;7.346;2022-09-03T14:31:44;25.70;94.50
12588;DHT22;6359;51.450;7.346;2022-09-03T14:34:29;25.80;94.70
12588;DHT22;6359;51.450;7.346;2022-09-03T14:37:03;25.70;94.80
12588;DHT22;6359;51.450;7.346;2022-09-03T14:39:33;25.90;94.90
12588;DHT22;6359;51.450;7.346;2022-09-03T14:42:27;25.50;94.90
12588;DHT22;6359;51.450;7.346;2022-09-03T14:45:12;25.40;95.30
12588;DHT22;6359;51.450;7.346;2022-09-03T14:47:56;25.70;95.20
12588;DHT22;6359;51.450;7.346;2022-09-03T14:50:37;25.50;94.80
12588;DHT22;6359;51.450;7.346;2022-09-03T14:53:25;25.30;95.50
12588;DHT22;6359;51.450;7.346;2022-09-03T14:56:19;25.60;95.60
12588;DHT22;6359;51.450;7.346;2022-09-03T15:01:52;25.80;94.80
12588;DHT22;6359;51.450;7.346;2022-09-03T15:04:50;25.50;95.50
12588;DHT22;6359;51.450;7.346;2022-09-03T15:07:30;26.00;95.40
12588;DHT22;6359;51.450;7.346;2022-09-03T15:10:05;25.90;94.90
12588;DHT22;6359;51.450;7.346;2022-09-03T15:12:38;26.20;94.50
12588;DHT22;6359;51.450;7.346;2022-09-03T15:15:11;26.20;95.00
12588;DHT22;6359;51.450;7.346;2022-09-03T15:17:49;26.10;95.40
12588;DHT22;6359;51.450;7.346;2022-09-03T15:20:25;26.10;95.60
12588;DHT22;6359;51.450;7.346;2022-09-03T15:23:23;26.20;94.70
12588;DHT22;6359;51.450;7.346;2022-09-03T15:26:22;26.20;94.40
12588;DHT22;6359;51.450;7.346;2022-09-03T15:29:19;26.20;95.00
12588;DHT22;6359;51.450;7.346;2022-09-03T15:31:53;26.20;95.20
12588;DHT22;6359;51.450;7.346;2022-09-03T15:34:46;26.10;95.80
12588;DHT22;6359;51.450;7.346;2022-09-03T15:37:20;26.10;96.20
12588;DHT22;6359;51.450;7.346;2022-09-03T15:40:00;25.80;96.70
12588;DHT22;6359;51.450;7.346;2022-09-03T15:42:29;25.90;96.70
12588;DHT22;6359;51.450;7.346;2022-09-03T15:45:02;26.00;96.70
12588;DHT22;6359;51.450;7.346;2022-09-03T15:47:36;26.00;96.60
12588;DHT22;6359;51.450;7.346;2022-09-03T15:50:15;26.10;96.20
12588;DHT22;6359;51.450;7.346;2022-09-03T15:52:53;26.00;96.40
12588;DHT22;6359;51.450;7.346;2022-09-03T15:55:31;25.90;97.10
12588;DHT22;6359;51.450;7.346;2022-09-03T15:58:03;25.40;96.80
12588;DHT22;6359;51.450;7.346;2022-09-03T16:00:48;25.60;97.30
12588;DHT22;6359;51.450;7.346;2022-09-03T16:03:20;25.30;97.60
12588;DHT22;6359;51.450;7.346;2022-09-03T16:05:54;25.40;97.50
12588;DHT22;6359;51.450;7.346;2022-09-03T16:08:27;25.40;97.40
12588;DHT22;6359;51.450;7.346;2022-09-03T16:11:06;25.40;98.20
12588;DHT22;6359;51.450;7.346;2022-09-03T16:13:42;25.30;97.80
12588;DHT22;6359;51.450;7.346;2022-09-03T16:16:14;25.20;97.80
12588;DHT22;6359;51.450;7.346;2022-09-03T16:18:51;25.20;97.60
12588;DHT22;6359;51.450;7.346;2022-09-03T16:21:23;25.10;97.90
12588;DHT22;6359;51.450;7.346;2022-09-03T16:23:55;25.00;98.10
12588;DHT22;6359;51.450;7.346;2022-09-03T16:26:29;25.00;98.50
12588;DHT22;6359;51.450;7.346;2022-09-03T16:29:02;24.90;98.30